Time;durP1;ratioP1;P1;durP2;ratioP2;P2;SDS_P1;SDS_P2;PMS_P1;PMS_P2;Temp;Humidity;BMP_temperature;BMP_pressure;BME280_temperature;BME280_humidity;BME280_pressure;Samples;Min_cycle;Max_cycle;Signal;HPM_P1;HPM_P2
2021/04/25 00:00:24;;;;;;;12.25;7.35;;;1.30;99.90;;;;;;5074954;28;20048;-77
2021/04/25 00:02:50;;;;;;;11.75;6.50;;;1.30;99.90;;;;;;5075204;28;20084;-77
2021/04/25 00:05:18;;;;;;;14.52;7.50;;;1.30;99.90;;;;;;5076321;28;20103;-78
2021/04/25 00:07:45;;;;;;;16.00;7.95;;;1.30;99.90;;;;;;5077041;28;20091;-80
2021/04/25 00:10:13;;;;;;;16.80;7.45;;;1.30;99.90;;;;;;5078169;28;20392;-79
2021/04/25 00:12:41;;;;;;;10.77;6.68;;;1.30;99.90;;;;;;5077732;28;20132;-80
2021/04/25 00:15:29;;;;;;;9.65;6.30;;;1.30;99.90;;;;;;5077406;28;20462;-77
2021/04/25 00:17:55;;;;;;;9.55;6.50;;;1.20;99.90;;;;;;5074369;28;20048;-78
2021/04/25 00:20:22;;;;;;;11.50;6.82;;;1.10;99.90;;;;;;5075696;28;20052;-78
2021/04/25 00:22:49;;;;;;;10.52;6.97;;;1.10;99.90;;;;;;5075935;28;20068;-77
2021/04/25 00:25:16;;;;;;;9.43;6.45;;;1.10;99.90;;;;;;5075753;28;20048;-78
2021/04/25 00:27:43;;;;;;;16.40;7.30;;;1.00;99.90;;;;;;5074510;28;20062;-78
2021/04/25 00:30:12;;;;;;;10.00;6.35;;;1.00;99.90;;;;;;5075342;28;20507;-77
2021/04/25 00:32:39;;;;;;;11.23;7.05;;;0.90;99.90;;;;;;5076808;28;20131;-78
2021/04/25 00:35:06;;;;;;;13.07;6.85;;;0.90;99.90;;;;;;5075991;28;20067;-77
2021/04/25 00:37:32;;;;;;;13.68;7.35;;;0.90;99.90;;;;;;5075272;28;20106;-78
2021/04/25 00:39:59;;;;;;;16.15;8.02;;;0.80;99.90;;;;;;5073809;28;20044;-77
2021/04/25 00:42:25;;;;;;;14.40;7.93;;;0.80;99.90;;;;;;5075146;28;20136;-77
2021/04/25 00:44:52;;;;;;;15.10;7.43;;;0.70;99.90;;;;;;5075342;28;20139;-77
2021/04/25 00:47:18;;;;;;;13.35;7.60;;;0.70;99.90;;;;;;5073995;28;20579;-77
2021/04/25 00:49:44;;;;;;;11.45;7.40;;;0.60;99.90;;;;;;5073801;28;20055;-78
2021/04/25 00:52:10;;;;;;;11.85;7.32;;;0.60;99.90;;;;;;5075189;28;20045;-79
2021/04/25 00:54:40;;;;;;;12.40;7.15;;;0.50;99.90;;;;;;5075927;28;20462;-79
2021/04/25 00:57:07;;;;;;;16.27;7.38;;;0.50;99.90;;;;;;5077260;28;20128;-79
2021/04/25 00:59:33;;;;;;;17.40;7.93;;;0.40;99.90;;;;;;5075448;28;20075;-78
2021/04/25 01:02:01;;;;;;;16.65;7.90;;;0.30;99.90;;;;;;5077159;28;20483;-78
2021/04/25 01:04:27;;;;;;;15.70;7.68;;;0.20;99.90;;;;;;5075655;28;20110;-78
2021/04/25 01:06:53;;;;;;;13.18;7.15;;;0.20;99.90;;;;;;5077413;28;20083;-79
2021/04/25 01:09:20;;;;;;;12.88;7.57;;;0.10;99.90;;;;;;5076345;28;20057;-78
2021/04/25 01:11:46;;;;;;;10.23;6.80;;;0.00;99.90;;;;;;5077185;28;20131;-80
2021/04/25 01:14:12;;;;;;;12.23;7.45;;;0.00;99.90;;;;;;5078578;28;20080;-79
2021/04/25 01:16:38;;;;;;;14.63;8.02;;;0.00;99.90;;;;;;5077392;28;20098;-79
2021/04/25 01:19:05;;;;;;;12.60;7.35;;;-0.10;99.90;;;;;;5076851;28;20530;-80
2021/04/25 01:21:31;;;;;;;12.95;7.53;;;-0.10;99.90;;;;;;5078210;28;20086;-79
2021/04/25 01:23:57;;;;;;;10.93;7.65;;;-0.20;99.90;;;;;;5077909;28;20070;-80
2021/04/25 01:26:23;;;;;;;14.70;8.05;;;-0.10;99.90;;;;;;5078299;28;20478;-80
2021/04/25 01:28:50;;;;;;;12.70;7.70;;;-0.20;99.90;;;;;;5078626;28;20108;-81
2021/04/25 01:31:17;;;;;;;10.68;7.65;;;-0.20;99.90;;;;;;5077758;28;20048;-80
2021/04/25 01:33:44;;;;;;;16.55;8.52;;;-0.20;99.90;;;;;;5075191;28;20086;-78
2021/04/25 01:36:11;;;;;;;15.20;8.48;;;-0.20;99.90;;;;;;5073172;28;20067;-79
2021/04/25 01:38:37;;;;;;;13.05;7.40;;;-0.30;99.90;;;;;;5074093;28;20123;-78
2021/04/25 01:41:04;;;;;;;15.98;8.55;;;-0.40;99.90;;;;;;5074016;28;20110;-78
2021/04/25 01:43:30;;;;;;;14.48;8.63;;;-0.30;99.90;;;;;;5073923;28;20099;-78
2021/04/25 01:45:57;;;;;;;19.90;9.32;;;-0.30;99.90;;;;;;5074066;28;20049;-78
2021/04/25 01:48:23;;;;;;;13.98;8.45;;;-0.30;99.90;;;;;;5073935;28;20048;-78
2021/04/25 01:50:49;;;;;;;15.50;8.32;;;-0.40;99.90;;;;;;5073265;28;20084;-79
2021/04/25 01:53:16;;;;;;;12.70;7.10;;;-0.50;99.90;;;;;;5073464;28;20090;-78
2021/04/25 01:55:43;;;;;;;16.10;7.95;;;-0.70;99.90;;;;;;5073628;28;20131;-78
2021/04/25 01:58:11;;;;;;;14.13;8.90;;;-0.80;99.90;;;;;;5072380;28;20075;-78
2021/04/25 02:00:43;;;;;;;14.20;8.85;;;-0.80;99.90;;;;;;5073245;28;20072;-79
2021/04/25 02:03:11;;;;;;;16.27;9.25;;;-0.80;99.90;;;;;;5073124;28;20086;-80
2021/04/25 02:05:38;;;;;;;16.67;8.68;;;-0.80;99.90;;;;;;5072136;28;20135;-78
2021/04/25 02:08:06;;;;;;;17.50;9.25;;;-0.80;99.90;;;;;;5073228;28;20094;-79
2021/04/25 02:10:33;;;;;;;15.63;9.55;;;-0.90;99.90;;;;;;5075364;28;20056;-80
2021/04/25 02:12:59;;;;;;;17.15;9.32;;;-0.90;99.90;;;;;;5074348;28;20052;-79
2021/04/25 02:15:26;;;;;;;15.70;8.32;;;-0.90;99.90;;;;;;5075597;28;20105;-79
2021/04/25 02:17:53;;;;;;;14.45;8.23;;;-0.80;99.90;;;;;;5075821;28;20492;-80
2021/04/25 02:20:22;;;;;;;17.27;8.68;;;-1.00;99.90;;;;;;5074174;28;20385;-79
2021/04/25 02:22:48;;;;;;;13.25;8.93;;;-1.00;99.90;;;;;;5074176;28;20053;-79
2021/04/25 02:25:17;;;;;;;18.05;8.65;;;-1.00;99.90;;;;;;5074971;28;20116;-79
2021/04/25 02:27:43;;;;;;;19.77;8.77;;;-1.10;99.90;;;;;;5074260;28;20044;-79
2021/04/25 02:30:23;;;;;;;12.32;7.65;;;-1.10;99.90;;;;;;5076612;28;20048;-79
2021/04/25 02:32:50;;;;;;;21.13;8.57;;;-1.20;99.90;;;;;;5075530;28;20052;-79
2021/04/25 02:35:18;;;;;;;13.63;8.32;;;-1.10;99.90;;;;;;5076567;28;20048;-79
2021/04/25 02:37:46;;;;;;;16.00;9.30;;;-1.10;99.90;;;;;;5075615;28;20053;-80
2021/04/25 02:40:14;;;;;;;13.35;8.43;;;-1.20;99.90;;;;;;5075481;28;20083;-79
2021/04/25 02:42:42;;;;;;;15.10;8.00;;;-1.20;99.90;;;;;;5077194;28;20045;-81
2021/04/25 02:45:17;;;;;;;16.17;9.68;;;-1.20;99.90;;;;;;5076314;28;20085;-81
2021/04/25 02:47:47;;;;;;;20.90;8.65;;;-1.10;99.90;;;;;;5078051;28;20044;-81
2021/04/25 02:50:16;;;;;;;16.50;7.97;;;-1.10;99.90;;;;;;5076615;28;20052;-80
2021/04/25 02:52:43;;;;;;;12.95;7.78;;;-1.00;99.90;;;;;;5078442;28;20045;-79
2021/04/25 02:55:10;;;;;;;12.35;7.57;;;-1.20;99.90;;;;;;5080752;28;20049;-79
2021/04/25 02:57:38;;;;;;;15.27;8.25;;;-1.20;99.90;;;;;;5076561;28;20079;-81
2021/04/25 03:00:07;;;;;;;15.82;8.68;;;-1.30;99.90;;;;;;5073673;28;20534;-79
2021/04/25 03:02:33;;;;;;;22.02;9.30;;;-1.40;99.90;;;;;;5075879;28;20074;-79
2021/04/25 03:04:59;;;;;;;16.58;9.77;;;-1.50;99.90;;;;;;5078698;28;20055;-79
2021/04/25 03:07:26;;;;;;;19.60;9.35;;;-1.40;99.90;;;;;;5077768;28;20507;-79
2021/04/25 03:09:52;;;;;;;23.35;10.05;;;-1.40;99.90;;;;;;5077518;28;20101;-79
2021/04/25 03:12:18;;;;;;;19.95;9.25;;;-1.40;99.90;;;;;;5078275;28;20084;-80
2021/04/25 03:14:44;;;;;;;20.02;10.85;;;-1.50;99.90;;;;;;5077726;28;20099;-79
2021/04/25 03:17:10;;;;;;;21.17;10.15;;;-1.30;99.90;;;;;;5077495;28;20045;-79
2021/04/25 03:19:37;;;;;;;19.70;10.25;;;-1.20;99.90;;;;;;5077254;28;20055;-80
2021/04/25 03:22:03;;;;;;;20.58;10.02;;;-1.10;99.90;;;;;;5077321;28;20076;-79
2021/04/25 03:24:29;;;;;;;20.02;9.90;;;-1.10;99.90;;;;;;5076764;28;20080;-79
2021/04/25 03:26:56;;;;;;;21.38;9.98;;;-1.20;99.90;;;;;;5077640;28;20442;-79
2021/04/25 03:29:22;;;;;;;18.15;9.35;;;-1.10;99.90;;;;;;5076879;28;20103;-80
2021/04/25 03:31:48;;;;;;;22.75;10.75;;;-1.20;99.90;;;;;;5076153;28;20076;-80
2021/04/25 03:34:15;;;;;;;15.98;9.07;;;-1.30;99.90;;;;;;5076735;28;20053;-80
2021/04/25 03:36:41;;;;;;;17.38;9.27;;;-1.40;99.90;;;;;;5076328;28;20070;-80
2021/04/25 03:39:08;;;;;;;17.63;10.00;;;-1.40;99.90;;;;;;5076559;28;20094;-79
2021/04/25 03:41:34;;;;;;;15.15;9.85;;;-1.50;99.90;;;;;;5074757;28;20132;-79
2021/04/25 03:44:00;;;;;;;16.50;9.55;;;-1.40;99.90;;;;;;5075973;28;20117;-80
2021/04/25 03:46:26;;;;;;;13.32;8.45;;;-1.60;99.90;;;;;;5074761;28;20569;-80
2021/04/25 03:48:53;;;;;;;21.30;9.73;;;-1.50;99.90;;;;;;5074865;28;20080;-80
2021/04/25 03:51:19;;;;;;;30.92;11.50;;;-1.60;99.90;;;;;;5074585;28;20045;-81
2021/04/25 03:53:45;;;;;;;19.48;9.23;;;-1.60;99.90;;;;;;5075675;28;20079;-80
2021/04/25 03:56:12;;;;;;;23.52;10.00;;;-1.50;99.90;;;;;;5075463;28;20052;-80
2021/04/25 03:58:39;;;;;;;20.67;9.55;;;-1.60;99.90;;;;;;5080045;28;20060;-82
2021/04/25 04:01:05;;;;;;;24.33;9.85;;;-1.70;99.90;;;;;;5080788;28;20060;-81
2021/04/25 04:03:32;;;;;;;15.68;9.52;;;-1.70;99.90;;;;;;5079025;28;20053;-82
2021/04/25 04:05:58;;;;;;;16.15;9.30;;;-1.70;99.90;;;;;;5081301;28;20087;-81
2021/04/25 04:08:25;;;;;;;15.95;9.20;;;-1.80;99.90;;;;;;5078983;28;20094;-82
2021/04/25 04:10:51;;;;;;;26.20;11.10;;;-1.80;99.90;;;;;;5076902;28;20113;-80
2021/04/25 04:13:18;;;;;;;19.02;11.07;;;-1.80;99.90;;;;;;5075507;28;20087;-82
2021/04/25 04:15:44;;;;;;;22.77;10.30;;;-1.80;99.90;;;;;;5075652;28;20075;-81
2021/04/25 04:18:11;;;;;;;22.27;9.95;;;-1.80;99.90;;;;;;5077341;28;20048;-80
2021/04/25 04:20:37;;;;;;;19.65;9.80;;;-1.80;99.90;;;;;;5076191;28;20470;-80
2021/04/25 04:23:03;;;;;;;15.65;9.88;;;-1.80;99.90;;;;;;5076008;28;20048;-80
2021/04/25 04:25:30;;;;;;;27.25;11.65;;;-1.80;99.90;;;;;;5076365;28;20041;-80
2021/04/25 04:27:57;;;;;;;18.88;10.50;;;-1.70;99.90;;;;;;5075950;28;20491;-81
2021/04/25 04:30:24;;;;;;;17.35;10.85;;;-1.80;99.90;;;;;;5077610;28;20056;-80
2021/04/25 04:32:50;;;;;;;23.52;11.07;;;-1.70;99.90;;;;;;5076054;28;20048;-80
2021/04/25 04:35:17;;;;;;;19.95;11.23;;;-1.60;99.90;;;;;;5075830;28;20427;-81
2021/04/25 04:37:43;;;;;;;21.02;11.80;;;-1.60;99.90;;;;;;5076913;28;20056;-80
2021/04/25 04:40:11;;;;;;;20.95;12.23;;;-1.50;99.90;;;;;;5076756;28;20049;-81
2021/04/25 04:42:38;;;;;;;22.33;10.80;;;-1.50;99.90;;;;;;5077596;28;20095;-81
2021/04/25 04:45:05;;;;;;;20.42;11.65;;;-1.50;99.90;;;;;;5076519;28;20065;-81
2021/04/25 04:47:31;;;;;;;19.90;10.88;;;-1.50;99.90;;;;;;5075943;28;20044;-80
2021/04/25 04:49:57;;;;;;;25.65;12.30;;;-1.50;99.90;;;;;;5076013;28;20105;-81
2021/04/25 04:52:24;;;;;;;30.23;13.80;;;-1.40;99.90;;;;;;5077565;28;20056;-80
2021/04/25 04:54:50;;;;;;;29.58;14.50;;;-1.30;99.90;;;;;;5076652;28;20135;-81
2021/04/25 04:57:16;;;;;;;30.60;17.60;;;-1.20;99.90;;;;;;5076278;28;20495;-80
2021/04/25 04:59:43;;;;;;;39.00;19.75;;;-0.90;99.90;;;;;;5076535;28;20112;-80
2021/04/25 05:02:09;;;;;;;40.13;19.80;;;-0.80;99.90;;;;;;5076417;28;20099;-79
2021/04/25 05:04:35;;;;;;;32.70;16.45;;;-0.80;99.90;;;;;;5078464;28;20048;-80
2021/04/25 05:07:02;;;;;;;31.83;16.50;;;-0.80;99.90;;;;;;5076581;28;20052;-80
2021/04/25 05:09:28;;;;;;;28.40;16.45;;;-0.80;99.90;;;;;;5076428;28;20567;-80
2021/04/25 05:11:57;;;;;;;38.05;18.35;;;-0.70;99.90;;;;;;5077471;28;20114;-81
2021/04/25 05:14:24;;;;;;;40.80;19.65;;;-0.60;99.90;;;;;;5078009;28;20487;-79
2021/04/25 05:16:51;;;;;;;61.97;28.38;;;-0.40;99.90;;;;;;5081225;28;20056;-79
2021/04/25 05:19:17;;;;;;;60.22;29.95;;;0.40;99.90;;;;;;5079424;28;20067;-80
2021/04/25 05:21:43;;;;;;;50.25;26.65;;;1.30;99.90;;;;;;5077525;28;20044;-79
2021/04/25 05:24:10;;;;;;;33.10;20.60;;;1.50;99.90;;;;;;5078526;28;20504;-81
2021/04/25 05:26:37;;;;;;;23.45;14.52;;;2.30;99.90;;;;;;5067799;28;20488;-80
2021/04/25 05:29:04;;;;;;;19.55;12.68;;;2.80;99.90;;;;;;5072466;28;20068;-78
2021/04/25 05:31:30;;;;;;;14.57;8.88;;;3.50;99.90;;;;;;5074199;28;20539;-78
2021/04/25 05:33:57;;;;;;;10.75;7.25;;;3.90;99.90;;;;;;5073261;28;20112;-78
2021/04/25 05:36:23;;;;;;;6.88;4.93;;;4.50;99.90;;;;;;5074275;28;20091;-78
2021/04/25 05:38:50;;;;;;;6.60;4.60;;;4.90;99.90;;;;;;5065990;28;20153;-78
2021/04/25 05:41:17;;;;;;;7.90;5.30;;;5.20;99.90;;;;;;5064866;28;20086;-78
2021/04/25 05:43:46;;;;;;;6.78;4.60;;;6.10;99.90;;;;;;5073609;28;20446;-79
2021/04/25 05:46:14;;;;;;;7.97;4.13;;;6.70;99.90;;;;;;5074498;28;20135;-79
2021/04/25 05:48:44;;;;;;;4.78;3.92;;;7.40;99.90;;;;;;5075673;28;20430;-79
2021/04/25 05:51:11;;;;;;;6.47;4.10;;;7.70;99.90;;;;;;5074827;28;20446;-78
2021/04/25 05:53:37;;;;;;;4.68;4.25;;;7.40;99.90;;;;;;5076716;28;20083;-78
2021/04/25 05:56:04;;;;;;;7.25;4.22;;;7.50;99.90;;;;;;5074753;28;20063;-78
2021/04/25 05:58:31;;;;;;;5.65;3.65;;;7.70;99.90;;;;;;5075687;28;20102;-78
2021/04/25 06:00:57;;;;;;;7.57;4.47;;;7.50;99.90;;;;;;5075843;28;20067;-78
2021/04/25 06:03:23;;;;;;;6.68;3.70;;;7.50;99.90;;;;;;5074938;28;20463;-78
2021/04/25 06:05:49;;;;;;;12.23;4.93;;;8.00;99.90;;;;;;5075479;28;20611;-78
2021/04/25 06:08:15;;;;;;;6.18;3.92;;;8.30;99.90;;;;;;5075141;28;20100;-79
2021/04/25 06:10:42;;;;;;;9.85;3.80;;;8.70;99.90;;;;;;5075674;28;20585;-78
2021/04/25 06:13:08;;;;;;;10.93;4.20;;;9.60;99.90;;;;;;5077155;28;20087;-78
2021/04/25 06:15:34;;;;;;;11.52;4.60;;;9.70;99.90;;;;;;5077519;28;20072;-78
2021/04/25 06:18:02;;;;;;;18.60;4.93;;;10.20;99.90;;;;;;5078171;28;20483;-79
2021/04/25 06:20:30;;;;;;;14.98;6.25;;;10.70;99.90;;;;;;5077317;28;20074;-79
2021/04/25 06:22:57;;;;;;;10.23;4.15;;;10.60;99.90;;;;;;5076105;28;20543;-79
2021/04/25 06:25:23;;;;;;;8.02;4.20;;;10.20;99.90;;;;;;5076432;28;20557;-79
2021/04/25 06:27:50;;;;;;;19.52;4.88;;;9.80;99.90;;;;;;5076002;28;20526;-79
2021/04/25 06:30:18;;;;;;;15.15;4.80;;;10.80;99.90;;;;;;5077914;28;20450;-79
2021/04/25 06:32:46;;;;;;;15.43;4.50;;;11.70;99.90;;;;;;5077187;28;20040;-80
2021/04/25 06:35:14;;;;;;;14.20;4.68;;;12.30;97.60;;;;;;5077657;28;20044;-79
2021/04/25 06:37:42;;;;;;;11.07;4.35;;;11.80;95.00;;;;;;5078051;28;20079;-80
2021/04/25 06:40:10;;;;;;;20.10;5.38;;;12.20;94.10;;;;;;5077038;28;20132;-80
2021/04/25 06:42:40;;;;;;;9.68;4.22;;;12.20;95.60;;;;;;5077197;28;20055;-81
2021/04/25 06:45:09;;;;;;;14.70;4.60;;;13.10;91.60;;;;;;5077252;28;20044;-79
2021/04/25 06:47:35;;;;;;;12.25;4.50;;;12.90;90.40;;;;;;5075627;28;20087;-79
2021/04/25 06:50:03;;;;;;;9.95;4.25;;;13.60;89.40;;;;;;5074876;28;20083;-79
2021/04/25 06:52:29;;;;;;;13.73;4.72;;;13.90;86.60;;;;;;5074494;28;20052;-79
2021/04/25 06:54:56;;;;;;;13.15;4.65;;;14.00;86.10;;;;;;5074118;28;20129;-79
2021/04/25 06:57:22;;;;;;;13.18;4.80;;;14.40;82.80;;;;;;5074577;28;20092;-79
2021/04/25 06:59:48;;;;;;;10.43;3.90;;;14.40;84.40;;;;;;5075974;28;20101;-79
2021/04/25 07:02:14;;;;;;;9.25;4.30;;;13.10;88.50;;;;;;5075107;28;20127;-79
2021/04/25 07:04:41;;;;;;;8.02;3.70;;;12.50;91.80;;;;;;5074282;28;20083;-79
2021/04/25 07:07:07;;;;;;;8.65;4.43;;;12.40;93.90;;;;;;5074501;28;20455;-80
2021/04/25 07:09:33;;;;;;;6.97;3.85;;;13.40;92.20;;;;;;5073564;28;20051;-80
2021/04/25 07:12:00;;;;;;;9.10;3.60;;;13.30;91.50;;;;;;5068633;28;20048;-79
2021/04/25 07:14:26;;;;;;;7.45;4.05;;;14.00;88.50;;;;;;5064821;28;20057;-80
2021/04/25 07:16:52;;;;;;;4.03;3.28;;;13.90;85.10;;;;;;5055755;28;20112;-80
2021/04/25 07:19:19;;;;;;;6.88;3.45;;;13.80;86.40;;;;;;5055847;28;20064;-79
2021/04/25 07:21:45;;;;;;;11.10;3.80;;;13.50;86.10;;;;;;5054455;28;20103;-79
2021/04/25 07:24:11;;;;;;;6.35;3.58;;;13.80;84.70;;;;;;5054900;28;20091;-80
2021/04/25 07:26:38;;;;;;;5.10;3.22;;;14.00;83.50;;;;;;5055162;28;20069;-79
2021/04/25 07:29:04;;;;;;;7.22;3.50;;;15.30;79.20;;;;;;5060496;28;20120;-79
2021/04/25 07:31:31;;;;;;;7.38;3.38;;;15.10;77.10;;;;;;5057229;28;20048;-79
2021/04/25 07:33:58;;;;;;;9.80;3.60;;;15.70;74.70;;;;;;5052569;28;20045;-79
2021/04/25 07:36:26;;;;;;;7.28;3.17;;;15.00;73.00;;;;;;5054890;28;20484;-80
2021/04/25 07:38:54;;;;;;;5.97;3.10;;;15.30;76.30;;;;;;5055195;28;20083;-80
2021/04/25 07:41:20;;;;;;;7.18;3.13;;;16.10;72.00;;;;;;5056742;28;20098;-79
2021/04/25 07:43:46;;;;;;;7.63;3.20;;;17.30;68.70;;;;;;5056090;28;20041;-79
2021/04/25 07:46:15;;;;;;;6.90;3.30;;;19.10;66.30;;;;;;5056381;28;20458;-79
2021/04/25 07:48:42;;;;;;;8.88;2.97;;;18.80;63.50;;;;;;5058596;28;20208;-80
2021/04/25 07:51:09;;;;;;;4.55;2.85;;;18.60;59.20;;;;;;5059110;28;20147;-80
2021/04/25 07:53:35;;;;;;;7.30;2.72;;;19.30;58.50;;;;;;5060094;28;20056;-80
2021/04/25 07:56:02;;;;;;;7.45;2.83;;;19.40;59.70;;;;;;5061458;28;20079;-80
2021/04/25 07:58:29;;;;;;;3.75;2.60;;;19.90;56.90;;;;;;5060386;28;20393;-81
2021/04/25 08:00:55;;;;;;;5.43;2.75;;;20.20;54.90;;;;;;5060864;28;20073;-80
2021/04/25 08:03:21;;;;;;;3.15;2.60;;;20.70;55.90;;;;;;5060215;28;20072;-79
2021/04/25 08:05:47;;;;;;;4.45;2.85;;;20.30;55.00;;;;;;5057357;28;20140;-81
2021/04/25 08:08:14;;;;;;;3.67;2.58;;;20.00;53.60;;;;;;5055907;28;20075;-80
2021/04/25 08:10:41;;;;;;;7.65;2.80;;;19.80;52.30;;;;;;5055628;28;20049;-80
2021/04/25 08:13:08;;;;;;;6.35;2.80;;;20.40;52.90;;;;;;5055161;28;20135;-80
2021/04/25 08:15:34;;;;;;;4.35;2.88;;;18.20;54.50;;;;;;5055868;28;20041;-80
2021/04/25 08:18:01;;;;;;;6.50;2.80;;;16.70;57.80;;;;;;5055100;28;20518;-79
2021/04/25 08:20:28;;;;;;;4.57;2.83;;;15.90;59.50;;;;;;5056581;28;20041;-79
2021/04/25 08:22:55;;;;;;;5.63;2.80;;;16.20;62.80;;;;;;5055157;28;20637;-79
2021/04/25 08:25:21;;;;;;;4.95;2.58;;;17.60;61.20;;;;;;5054492;28;20136;-79
2021/04/25 08:27:48;;;;;;;5.60;2.85;;;17.60;59.20;;;;;;5056342;28;20397;-80
2021/04/25 08:30:15;;;;;;;3.78;2.47;;;17.20;60.20;;;;;;5054787;28;20080;-79
2021/04/25 08:32:42;;;;;;;6.35;2.63;;;17.50;61.30;;;;;;5062119;28;20462;-80
2021/04/25 08:35:09;;;;;;;5.90;2.60;;;18.30;59.00;;;;;;5062185;28;20133;-79
2021/04/25 08:37:35;;;;;;;5.28;2.40;;;18.10;58.70;;;;;;5054539;28;20076;-79
2021/04/25 08:40:03;;;;;;;6.22;2.67;;;19.10;58.30;;;;;;5054229;28;20052;-77
2021/04/25 08:42:29;;;;;;;3.85;2.30;;;20.80;53.60;;;;;;5055440;28;20450;-77
2021/04/25 08:44:56;;;;;;;4.38;2.55;;;22.70;52.40;;;;;;5054249;28;20136;-77
2021/04/25 08:47:27;;;;;;;5.70;2.35;;;24.10;49.70;;;;;;5055124;28;20504;-77
2021/04/25 08:49:58;;;;;;;5.57;2.40;;;21.20;49.40;;;;;;5053641;28;20538;-79
2021/04/25 08:52:25;;;;;;;4.13;2.33;;;19.40;54.60;;;;;;5053835;28;20049;-81
2021/04/25 08:54:52;;;;;;;6.00;2.63;;;19.90;54.10;;;;;;5053648;28;20563;-77
2021/04/25 08:57:18;;;;;;;4.50;2.65;;;20.60;52.70;;;;;;5053697;28;20091;-78
2021/04/25 08:59:45;;;;;;;3.65;2.28;;;20.30;52.70;;;;;;5053864;28;20083;-77
2021/04/25 09:02:11;;;;;;;7.93;2.75;;;20.20;53.70;;;;;;5053261;28;20469;-77
2021/04/25 09:04:37;;;;;;;6.40;2.42;;;20.20;53.30;;;;;;5054724;28;20045;-78
2021/04/25 09:07:06;;;;;;;6.68;2.80;;;19.10;53.60;;;;;;5054979;28;20044;-77
2021/04/25 09:09:41;;;;;;;4.78;2.13;;;19.90;54.20;;;;;;5055078;28;20555;-78
2021/04/25 09:12:08;;;;;;;3.05;2.60;;;21.70;51.90;;;;;;5055374;28;20084;-77
2021/04/25 09:14:39;;;;;;;4.30;2.70;;;20.30;51.20;;;;;;5055791;28;20496;-80
2021/04/25 09:17:07;;;;;;;7.07;2.47;;;18.40;53.90;;;;;;5056966;28;20110;-79
2021/04/25 09:19:57;;;;;;;6.85;2.97;;;18.40;55.00;;;;;;5058809;28;20052;-78
2021/04/25 09:22:45;;;;;;;6.95;3.00;;;18.80;54.00;;;;;;5052991;28;20068;-78
2021/04/25 09:25:15;;;;;;;7.45;3.72;;;18.20;56.70;;;;;;5054391;28;20099;-78
2021/04/25 09:27:43;;;;;;;7.28;3.55;;;19.00;56.40;;;;;;5056604;28;20141;-79
2021/04/25 09:30:10;;;;;;;17.88;10.63;;;19.30;53.40;;;;;;5054909;28;20448;-78
2021/04/25 09:32:37;;;;;;;17.58;8.63;;;17.90;56.60;;;;;;5055219;28;20135;-78
2021/04/25 09:35:18;;;;;;;9.63;5.18;;;18.10;56.30;;;;;;5055344;28;20104;-78
2021/04/25 09:37:47;;;;;;;5.38;3.17;;;16.80;59.70;;;;;;5053829;28;20072;-80
2021/04/25 09:40:15;;;;;;;9.80;5.97;;;18.40;60.90;;;;;;5055558;28;20109;-79
2021/04/25 09:43:02;;;;;;;9.38;3.88;;;19.40;55.60;;;;;;5055127;28;20076;-78
2021/04/25 09:45:35;;;;;;;6.55;2.50;;;19.00;55.80;;;;;;5054508;28;20506;-78
2021/04/25 09:48:24;;;;;;;7.63;2.75;;;19.70;54.90;;;;;;5056384;28;20049;-81
2021/04/25 09:51:13;;;;;;;8.60;3.00;;;19.20;54.20;;;;;;5055540;28;20041;-77
2021/04/25 09:53:42;;;;;;;5.35;2.67;;;18.90;54.90;;;;;;5053721;28;20098;-77
2021/04/25 09:56:09;;;;;;;8.32;3.63;;;19.80;53.50;;;;;;5061311;28;20075;-78
2021/04/25 09:59:01;;;;;;;4.20;2.85;;;20.50;52.60;;;;;;5073292;28;20314;-78
2021/04/25 10:01:35;;;;;;;5.82;3.03;;;20.60;53.00;;;;;;5075689;28;20502;-77
2021/04/25 10:04:04;;;;;;;5.82;2.63;;;22.10;49.80;;;;;;5074252;28;20048;-77
2021/04/25 10:06:51;;;;;;;8.55;3.28;;;21.50;49.90;;;;;;5074913;28;20053;-77
2021/04/25 10:09:25;;;;;;;6.95;3.20;;;21.70;49.60;;;;;;5074247;28;20135;-78
2021/04/25 10:11:53;;;;;;;3.80;2.60;;;22.30;47.40;;;;;;5073448;28;20135;-77
2021/04/25 10:14:20;;;;;;;6.13;3.45;;;23.40;47.40;;;;;;5073664;28;20087;-78
2021/04/25 10:16:46;;;;;;;7.55;3.20;;;20.80;49.20;;;;;;5073024;28;20048;-79
2021/04/25 10:19:14;;;;;;;11.48;3.53;;;19.60;52.60;;;;;;5075122;28;20120;-79
2021/04/25 10:21:44;;;;;;;7.80;3.33;;;18.20;56.20;;;;;;5073283;28;20053;-77
2021/04/25 10:24:22;;;;;;;7.55;3.05;;;18.80;54.90;;;;;;5074292;28;20491;-77
2021/04/25 10:27:00;;;;;;;6.10;3.10;;;19.70;53.60;;;;;;5073734;28;20068;-78
2021/04/25 10:30:00;;;;;;;6.85;3.63;;;21.80;50.40;;;;;;5073196;28;20080;-78
2021/04/25 10:32:27;;;;;;;7.15;3.47;;;22.00;49.40;;;;;;5064821;28;20123;-80
2021/04/25 10:35:17;;;;;;;4.97;3.05;;;22.10;48.70;;;;;;5059208;28;20508;-79
2021/04/25 10:38:14;;;;;;;7.75;3.55;;;19.00;51.90;;;;;;5054298;28;20140;-77
2021/04/25 10:40:49;;;;;;;3.28;2.97;;;18.10;53.40;;;;;;5053102;28;20057;-77
2021/04/25 10:43:18;;;;;;;21.52;7.53;;;18.70;54.10;;;;;;5052213;28;20044;-77
2021/04/25 10:45:55;;;;;;;3.17;2.78;;;19.60;52.00;;;;;;5052447;28;20041;-81
2021/04/25 10:48:26;;;;;;;6.90;3.17;;;18.50;50.90;;;;;;5053737;28;20069;-79
2021/04/25 10:54:34;;;;;;;5.93;3.53;;;15.90;57.20;;;;;;5014070;28;20088;-79
2021/04/25 10:57:38;;;;;;;9.43;3.67;;;14.70;61.10;;;;;;5022925;28;20046;-79
2021/04/25 11:00:29;;;;;;;7.47;4.45;;;13.40;62.90;;;;;;5011986;28;20138;-79
2021/04/25 11:03:06;;;;;;;5.00;3.70;;;12.80;68.00;;;;;;5020322;28;20137;-79
2021/04/25 11:05:38;;;;;;;7.63;6.65;;;13.10;67.50;;;;;;5014728;28;20059;-80
2021/04/25 11:08:41;;;;;;;7.15;2.80;;;15.20;62.60;;;;;;5012502;28;20445;-77
2021/04/25 11:11:11;;;;;;;7.18;3.80;;;17.70;54.60;;;;;;5059751;28;20139;-78
2021/04/25 11:13:44;;;;;;;7.38;2.80;;;19.90;49.30;;;;;;5061540;28;20106;-78
2021/04/25 11:16:16;;;;;;;5.73;2.80;;;19.20;46.90;;;;;;5053940;28;20087;-80
2021/04/25 11:19:07;;;;;;;3.53;2.85;;;18.20;49.20;;;;;;5053811;28;20150;-77
2021/04/25 11:21:38;;;;;;;6.45;2.83;;;16.50;51.50;;;;;;5053896;28;20052;-77
2021/04/25 11:26:39;;;;;;;8.25;5.95;;;15.90;56.20;;;;;;5058708;28;20045;-78
2021/04/25 11:29:07;;;;;;;14.30;7.47;;;16.30;55.00;;;;;;5057346;28;20147;-78
2021/04/25 11:31:42;;;;;;;2.55;2.35;;;16.70;54.10;;;;;;5056382;28;20500;-77
2021/04/25 11:34:33;;;;;;;3.55;2.50;;;18.30;51.60;;;;;;5059848;28;20045;-79
2021/04/25 11:37:24;;;;;;;3.58;2.40;;;18.60;49.30;;;;;;5060573;28;20095;-82
2021/04/25 11:39:55;;;;;;;2.28;1.98;;;18.00;49.30;;;;;;5058268;28;20470;-78
2021/04/25 11:42:31;;;;;;;4.10;2.53;;;18.70;50.30;;;;;;5057093;28;20140;-78
2021/04/25 11:45:04;;;;;;;2.58;2.22;;;19.30;48.40;;;;;;5056279;28;20092;-79
2021/04/25 11:47:31;;;;;;;5.68;2.58;;;20.00;49.30;;;;;;5056451;28;20056;-78
2021/04/25 11:50:00;;;;;;;8.18;3.35;;;20.20;48.70;;;;;;5056238;28;20041;-79
2021/04/25 11:52:34;;;;;;;27.48;14.98;;;20.00;48.30;;;;;;5058176;28;20052;-79
2021/04/25 11:55:08;;;;;;;5.43;2.47;;;18.60;47.40;;;;;;5057596;28;20052;-79
2021/04/25 11:57:40;;;;;;;3.30;2.08;;;16.10;49.40;;;;;;5055601;28;20080;-77
2021/04/25 12:00:28;;;;;;;8.05;2.65;;;15.90;54.40;;;;;;5056282;28;20523;-79
2021/04/25 12:03:00;;;;;;;2.67;2.20;;;17.40;50.10;;;;;;5056289;28;20132;-78
2021/04/25 12:05:38;;;;;;;7.55;3.28;;;19.30;47.80;;;;;;5056522;28;20048;-79
2021/04/25 12:08:13;;;;;;;7.55;3.47;;;20.70;48.20;;;;;;5056460;28;20136;-78
2021/04/25 12:10:47;;;;;;;9.40;3.47;;;18.90;50.10;;;;;;5056406;28;20496;-77
2021/04/25 12:13:19;;;;;;;4.68;2.88;;;17.10;54.60;;;;;;5057446;28;20132;-79
2021/04/25 12:16:02;;;;;;;7.57;3.58;;;17.10;54.40;;;;;;5056785;28;20045;-80
2021/04/25 12:18:33;;;;;;;4.32;2.92;;;16.70;55.20;;;;;;5056565;28;20052;-78
2021/04/25 12:21:01;;;;;;;7.82;3.28;;;16.70;56.20;;;;;;5057407;28;20084;-80
2021/04/25 12:23:30;;;;;;;8.35;3.47;;;16.50;56.40;;;;;;5071674;28;20045;-83
2021/04/25 12:25:56;;;;;;;6.68;3.67;;;16.00;56.80;;;;;;5081114;28;20045;-82
2021/04/25 12:28:38;;;;;;;4.88;3.30;;;15.00;56.80;;;;;;5071360;28;20496;-82
2021/04/25 12:31:05;;;;;;;6.50;2.72;;;14.30;58.40;;;;;;5058429;28;20569;-82
2021/04/25 12:33:39;;;;;;;7.05;3.05;;;14.80;58.40;;;;;;5054985;28;20057;-81
2021/04/25 12:36:06;;;;;;;6.20;3.40;;;15.60;58.10;;;;;;5056641;28;20479;-81
2021/04/25 12:38:34;;;;;;;7.57;3.08;;;16.50;57.20;;;;;;5056589;28;20099;-82
2021/04/25 12:41:04;;;;;;;7.43;3.33;;;16.20;56.20;;;;;;5054979;28;20048;-80
2021/04/25 12:43:38;;;;;;;4.85;2.90;;;15.30;57.80;;;;;;5053999;28;20519;-81
2021/04/25 12:46:14;;;;;;;20.58;3.47;;;15.60;58.10;;;;;;5054541;28;20072;-80
2021/04/25 12:48:42;;;;;;;4.75;2.72;;;16.20;57.80;;;;;;5054301;28;20085;-81
2021/04/25 12:51:26;;;;;;;4.20;3.38;;;16.60;57.60;;;;;;5054135;28;20131;-79
2021/04/25 12:53:57;;;;;;;5.63;3.30;;;16.60;55.30;;;;;;5055706;28;20049;-81
2021/04/25 12:56:25;;;;;;;6.88;3.40;;;15.30;55.60;;;;;;5055817;28;20144;-84
2021/04/25 12:59:05;;;;;;;6.65;3.20;;;15.00;58.40;;;;;;5054896;28;20496;-82